Time;durP1;ratioP1;P1;durP2;ratioP2;P2;SDS_P1;SDS_P2;PMS_P1;PMS_P2;Temp;Humidity;BMP_temperature;BMP_pressure;BME280_temperature;BME280_humidity;BME280_pressure;Samples;Min_cycle;Max_cycle;Signal;HPM_P1;HPM_P2
2021/04/16 00:01:00;;;;;;;32.30;18.20;;;;;;;1.73;74.50;98920.37;114298;1206;103159;-77
2021/04/16 00:03:31;;;;;;;31.10;17.20;;;;;;;1.74;74.28;98914.21;114356;1205;103152;-77
2021/04/16 00:06:02;;;;;;;32.80;18.00;;;;;;;1.74;74.49;98919.45;114323;1206;103207;-78
2021/04/16 00:08:35;;;;;;;31.90;17.60;;;;;;;1.76;74.55;98916.77;114507;1206;103169;-78
2021/04/16 00:11:05;;;;;;;28.05;15.70;;;;;;;1.73;74.38;98911.63;114482;1205;103050;-78
2021/04/16 00:13:33;;;;;;;29.60;15.90;;;;;;;1.69;74.50;98908.28;114231;1206;103050;-79
2021/04/16 00:16:02;;;;;;;29.00;15.60;;;;;;;1.71;74.20;98909.09;114529;1206;103315;-78
2021/04/16 00:18:30;;;;;;;28.80;14.15;;;;;;;1.69;74.25;98910.04;115223;1206;103066;-78
2021/04/16 00:20:59;;;;;;;31.20;15.20;;;;;;;1.65;74.38;98904.08;115331;1206;102958;-78
2021/04/16 00:23:28;;;;;;;30.85;16.65;;;;;;;1.65;74.21;98898.83;114248;1206;103114;-77
2021/04/16 00:25:58;;;;;;;30.80;15.60;;;;;;;1.68;74.13;98903.95;114363;1206;103059;-77
2021/04/16 00:28:28;;;;;;;28.95;15.70;;;;;;;1.64;74.24;98897.12;114537;1206;103169;-78
2021/04/16 00:31:12;;;;;;;28.03;14.93;;;;;;;1.62;74.20;98902.44;114504;1206;103098;-78
2021/04/16 00:33:39;;;;;;;27.20;14.40;;;;;;;1.60;74.53;98900.77;114516;1205;103159;-79
2021/04/16 00:36:10;;;;;;;30.50;15.60;;;;;;;1.58;74.22;98908.71;114489;1206;103049;-80
2021/04/16 00:38:40;;;;;;;29.80;14.60;;;;;;;1.56;74.62;98897.42;114511;1206;103075;-78
2021/04/16 00:41:12;;;;;;;28.85;14.40;;;;;;;1.58;74.36;98905.22;114493;1206;103085;-77
2021/04/16 00:43:39;;;;;;;29.40;14.00;;;;;;;1.54;74.76;98898.38;114522;1206;103573;-78
2021/04/16 00:46:12;;;;;;;26.60;14.00;;;;;;;1.56;74.21;98904.42;114491;1205;103249;-76
2021/04/16 00:48:44;;;;;;;27.30;12.65;;;;;;;1.52;74.40;98898.45;114491;1206;103162;-77
2021/04/16 00:51:40;;;;;;;27.13;13.83;;;;;;;1.51;74.62;98896.74;114494;1206;103053;-77
2021/04/16 00:54:40;;;;;;;27.27;14.63;;;;;;;1.51;74.50;98898.50;114433;1206;103153;-78
2021/04/16 00:57:12;;;;;;;28.10;15.00;;;;;;;1.47;74.43;98889.91;114290;1206;103143;-77
2021/04/16 00:59:50;;;;;;;27.40;13.80;;;;;;;1.48;74.52;98894.23;114381;1206;103612;-77
2021/04/16 01:02:18;;;;;;;27.55;14.55;;;;;;;1.47;74.67;98889.91;114426;1205;103047;-77
2021/04/16 01:04:46;;;;;;;26.50;13.25;;;;;;;1.44;74.43;98892.64;114435;1206;103551;-77
2021/04/16 01:07:18;;;;;;;26.60;13.05;;;;;;;1.39;74.34;98884.97;114493;1206;103128;-79
2021/04/16 01:09:52;;;;;;;28.05;12.95;;;;;;;1.36;73.95;98879.84;114510;1206;103127;-78
2021/04/16 01:12:22;;;;;;;27.20;12.70;;;;;;;1.31;74.31;98887.86;114496;1205;103078;-77
2021/04/16 01:15:01;;;;;;;28.50;14.60;;;;;;;1.30;74.66;98880.91;114497;1206;103177;-77
2021/04/16 01:17:34;;;;;;;27.70;13.00;;;;;;;1.29;74.51;98873.95;114518;1206;103052;-78
2021/04/16 01:20:25;;;;;;;27.70;11.80;;;;;;;1.28;74.59;98879.27;114503;1206;103162;-79
2021/04/16 01:23:14;;;;;;;26.80;12.35;;;;;;;1.26;74.46;98875.85;114533;1206;103117;-79
2021/04/16 01:25:46;;;;;;;27.15;13.50;;;;;;;1.21;74.63;98870.80;114517;1206;103281;-78
2021/04/16 01:28:16;;;;;;;29.80;15.20;;;;;;;1.20;74.42;98871.70;114508;1206;103152;-77
2021/04/16 01:31:10;;;;;;;27.50;12.70;;;;;;;1.18;74.49;98882.23;114536;1206;103056;-77
2021/04/16 01:33:41;;;;;;;25.35;12.45;;;;;;;1.19;74.45;98870.00;114479;1206;103053;-77
2021/04/16 01:36:14;;;;;;;25.70;12.35;;;;;;;1.17;74.71;98870.04;114478;1206;103153;-77
2021/04/16 01:38:48;;;;;;;25.30;11.90;;;;;;;1.19;74.70;98864.77;114557;1206;103095;-77
2021/04/16 01:41:20;;;;;;;26.07;11.43;;;;;;;1.18;74.55;98873.53;114512;1206;103577;-77
2021/04/16 01:43:56;;;;;;;24.90;11.80;;;;;;;1.16;74.86;98863.09;114530;1206;103168;-80
2021/04/16 01:46:27;;;;;;;25.10;11.70;;;;;;;1.15;74.89;98871.86;114495;1206;103261;-79
2021/04/16 01:49:00;;;;;;;22.75;9.50;;;;;;;1.16;74.72;98872.73;114534;1206;103101;-81
2021/04/16 01:51:35;;;;;;;26.43;12.40;;;;;;;1.14;74.58;98859.67;114509;1206;103152;-80
2021/04/16 01:54:26;;;;;;;27.90;13.00;;;;;;;1.14;74.70;98864.08;114506;1206;103076;-79
2021/04/16 01:57:08;;;;;;;28.85;13.90;;;;;;;1.15;75.00;98856.14;114516;1206;103053;-78
2021/04/16 01:59:42;;;;;;;26.20;13.20;;;;;;;1.15;75.00;98857.92;114496;1206;103082;-80
2021/04/16 02:02:16;;;;;;;24.53;12.17;;;;;;;1.13;74.81;98849.27;114549;1206;103134;-79
2021/04/16 02:04:46;;;;;;;27.10;13.10;;;;;;;1.12;74.64;98847.56;114487;1206;103188;-79
2021/04/16 02:07:16;;;;;;;24.85;12.30;;;;;;;1.09;74.60;98850.29;114481;1206;103062;-80
2021/04/16 02:09:43;;;;;;;25.00;11.30;;;;;;;1.07;74.76;98849.48;114515;1206;103210;-79
2021/04/16 02:12:23;;;;;;;25.80;12.50;;;;;;;1.06;75.16;98842.55;114504;1206;103079;-78
2021/04/16 02:14:52;;;;;;;27.40;13.10;;;;;;;1.06;74.76;98840.77;114481;1205;103139;-79
2021/04/16 02:17:26;;;;;;;24.95;11.00;;;;;;;1.04;74.99;98850.44;114539;1205;103146;-77
2021/04/16 02:19:58;;;;;;;24.40;10.70;;;;;;;1.03;74.78;98843.49;114502;1206;103169;-79
2021/04/16 02:22:30;;;;;;;23.65;11.25;;;;;;;1.00;74.48;98843.64;114538;1206;103199;-78
2021/04/16 02:24:57;;;;;;;24.80;10.70;;;;;;;0.99;74.92;98847.17;114482;1205;103479;-78
2021/04/16 02:27:28;;;;;;;26.20;11.60;;;;;;;0.98;74.77;98853.31;114511;1206;103185;-80
2021/04/16 02:29:59;;;;;;;24.10;10.50;;;;;;;0.98;74.95;98845.45;114537;1205;103274;-77
2021/04/16 02:32:29;;;;;;;25.10;12.07;;;;;;;0.97;74.72;98841.97;114500;1206;103059;-78
2021/04/16 02:34:56;;;;;;;26.30;11.40;;;;;;;0.95;74.74;98841.17;114482;1205;103088;-78
2021/04/16 02:37:26;;;;;;;26.40;12.10;;;;;;;0.93;75.25;98837.75;114464;1206;103181;-77
2021/04/16 02:39:53;;;;;;;24.30;10.55;;;;;;;0.94;75.23;98836.00;114392;1206;103056;-77
2021/04/16 02:42:20;;;;;;;23.15;10.05;;;;;;;0.92;74.90;98833.42;114503;1205;103191;-78
2021/04/16 02:44:47;;;;;;;23.40;10.00;;;;;;;0.91;74.95;98839.57;114355;1205;103208;-77
2021/04/16 02:47:20;;;;;;;25.60;10.20;;;;;;;0.89;74.85;98831.78;114419;1206;103078;-78
2021/04/16 02:49:48;;;;;;;22.50;9.53;;;;;;;0.88;74.87;98834.45;114488;1206;103100;-78
2021/04/16 02:52:15;;;;;;;23.55;9.80;;;;;;;0.88;75.18;98829.20;114523;1206;103101;-77
2021/04/16 02:54:45;;;;;;;21.20;9.70;;;;;;;0.91;74.96;98836.11;114447;1205;103233;-78
2021/04/16 02:57:15;;;;;;;22.70;9.60;;;;;;;0.92;75.30;98829.97;114362;1206;103149;-77
2021/04/16 02:59:42;;;;;;;20.50;9.00;;;;;;;0.93;75.17;98824.66;114438;1206;103259;-75
2021/04/16 03:02:09;;;;;;;23.10;11.37;;;;;;;0.92;74.86;98824.73;114278;1206;103053;-76
2021/04/16 03:04:43;;;;;;;23.25;11.05;;;;;;;0.93;74.95;98824.66;114502;1206;103149;-78
2021/04/16 03:07:11;;;;;;;25.73;10.57;;;;;;;0.93;74.94;98818.58;114454;1205;103306;-76
2021/04/16 03:09:39;;;;;;;23.55;10.40;;;;;;;0.93;75.08;98819.42;114343;1206;103137;-78
2021/04/16 03:12:07;;;;;;;22.50;9.40;;;;;;;0.93;74.89;98823.81;114326;1206;103162;-79
2021/04/16 03:14:34;;;;;;;23.10;10.90;;;;;;;0.93;75.08;98815.96;114544;1206;103165;-79
2021/04/16 03:17:01;;;;;;;24.60;10.75;;;;;;;0.93;75.46;98814.18;115160;1206;103053;-78
2021/04/16 03:19:29;;;;;;;22.75;9.95;;;;;;;0.95;75.14;98811.52;114465;1205;103207;-78
2021/04/16 03:21:55;;;;;;;20.97;8.70;;;;;;;0.96;75.22;98818.47;114273;1206;103137;-78
2021/04/16 03:24:22;;;;;;;21.80;9.70;;;;;;;0.95;75.35;98814.14;114394;1205;103164;-78
2021/04/16 03:26:50;;;;;;;24.10;11.60;;;;;;;0.94;75.16;98808.03;114449;1206;103140;-78
2021/04/16 03:29:17;;;;;;;20.25;8.75;;;;;;;0.94;75.04;98807.20;114373;1206;103244;-78
2021/04/16 03:31:45;;;;;;;24.20;10.65;;;;;;;0.93;75.30;98801.09;114521;1206;103542;-77
2021/04/16 03:34:15;;;;;;;23.35;10.90;;;;;;;0.95;75.39;98807.13;114510;1206;103201;-79
2021/04/16 03:36:46;;;;;;;23.47;11.07;;;;;;;0.94;75.02;98807.20;114488;1206;103159;-79
2021/04/16 03:39:16;;;;;;;21.30;9.70;;;;;;;0.95;75.04;98808.91;114495;1206;103053;-78
2021/04/16 03:41:43;;;;;;;22.55;9.50;;;;;;;0.95;75.51;98799.27;114499;1205;103082;-79
2021/04/16 03:44:10;;;;;;;21.00;9.60;;;;;;;0.96;75.20;98805.38;114492;1206;103175;-80
2021/04/16 03:46:37;;;;;;;25.70;9.50;;;;;;;0.94;75.04;98800.17;114441;1206;103101;-79
2021/04/16 03:49:10;;;;;;;21.90;9.73;;;;;;;0.91;75.11;98815.16;114546;1206;103227;-79
2021/04/16 03:51:59;;;;;;;23.50;10.00;;;;;;;0.91;75.41;98810.77;114539;1206;103149;-78
2021/04/16 03:54:30;;;;;;;24.60;10.00;;;;;;;0.91;75.02;98810.77;114508;1206;103159;-77
2021/04/16 03:57:00;;;;;;;24.47;11.03;;;;;;;0.91;75.59;98808.14;115244;1205;103149;-77
2021/04/16 03:59:27;;;;;;;23.00;10.30;;;;;;;0.91;75.69;98804.69;114499;1206;103050;-78
2021/04/16 04:01:57;;;;;;;23.57;10.00;;;;;;;0.91;75.48;98804.69;114500;1206;103127;-78
2021/04/16 04:04:25;;;;;;;22.05;9.35;;;;;;;0.92;75.24;98807.23;114505;1206;103124;-78
2021/04/16 04:06:51;;;;;;;22.70;10.60;;;;;;;0.91;75.42;98802.91;114483;1206;103130;-77
2021/04/16 04:09:22;;;;;;;24.40;10.60;;;;;;;0.91;75.07;98802.91;114507;1206;103089;-75
2021/04/16 04:11:50;;;;;;;23.30;9.70;;;;;;;0.93;75.66;98801.09;114439;1206;103254;-78
2021/04/16 04:14:24;;;;;;;21.40;9.40;;;;;;;0.94;75.37;98800.17;114490;1206;103156;-74
2021/04/16 04:16:56;;;;;;;24.35;9.45;;;;;;;0.94;75.05;98797.55;114328;1206;103050;-74
2021/04/16 04:19:29;;;;;;;20.80;8.90;;;;;;;0.94;74.98;98804.58;114402;1206;103172;-75
2021/04/16 04:21:58;;;;;;;21.70;8.50;;;;;;;0.92;75.18;98802.00;114367;1205;103052;-78
2021/04/16 04:24:29;;;;;;;20.50;8.00;;;;;;;0.92;75.31;98804.61;114557;1206;103063;-75
2021/04/16 04:26:59;;;;;;;19.70;8.77;;;;;;;0.93;75.23;98802.86;114386;1206;103060;-76
2021/04/16 04:29:26;;;;;;;21.55;9.10;;;;;;;0.92;75.06;98806.39;114424;1206;103103;-75
2021/04/16 04:31:53;;;;;;;19.80;7.30;;;;;;;0.93;75.58;98803.70;114468;1205;103072;-78
2021/04/16 04:34:29;;;;;;;21.80;8.43;;;;;;;0.91;75.17;98802.91;114455;1206;103220;-77
2021/04/16 04:36:59;;;;;;;17.20;6.90;;;;;;;0.89;75.34;98800.36;114391;1206;103258;-78
2021/04/16 04:39:33;;;;;;;20.80;7.80;;;;;;;0.88;75.43;98803.89;114460;1206;103146;-76
2021/04/16 04:42:04;;;;;;;15.27;6.60;;;;;;;0.89;75.42;98807.34;114432;1206;103358;-76
2021/04/16 04:44:34;;;;;;;17.20;6.53;;;;;;;0.89;75.35;98796.88;114499;1206;103075;-77
2021/04/16 04:47:06;;;;;;;20.80;9.00;;;;;;;0.90;75.22;98801.20;114490;1206;103200;-77
2021/04/16 04:49:34;;;;;;;20.20;8.10;;;;;;;0.92;75.51;98809.02;114445;1206;103082;-74
2021/04/16 04:52:24;;;;;;;18.65;7.55;;;;;;;0.92;75.76;98795.92;114457;1206;103123;-75
2021/04/16 04:54:57;;;;;;;21.10;8.20;;;;;;;0.89;75.69;98796.88;114458;1206;103075;-76
2021/04/16 04:57:27;;;;;;;21.55;8.55;;;;;;;0.88;75.77;98790.80;114428;1206;103214;-77
2021/04/16 04:59:55;;;;;;;19.93;8.20;;;;;;;0.90;75.48;98795.95;114449;1206;103152;-79
2021/04/16 05:02:26;;;;;;;20.73;8.30;;;;;;;0.90;75.72;98790.72;114451;1206;103155;-75
2021/04/16 05:04:53;;;;;;;20.70;8.80;;;;;;;0.91;75.83;98788.97;114464;1206;103117;-75
2021/04/16 05:07:23;;;;;;;20.10;8.90;;;;;;;0.91;75.58;98795.05;114439;1206;105002;-73
2021/04/16 05:09:50;;;;;;;19.85;7.30;;;;;;;0.91;75.68;98792.43;114438;1206;103172;-72
2021/04/16 05:12:17;;;;;;;19.20;7.60;;;;;;;0.91;75.85;98792.43;114418;1206;103246;-74
2021/04/16 05:14:44;;;;;;;20.70;8.40;;;;;;;0.91;75.54;98796.83;114248;1206;103518;-74
2021/04/16 05:17:11;;;;;;;21.73;9.20;;;;;;;0.91;75.57;98796.83;114477;1206;103078;-72
2021/04/16 05:19:42;;;;;;;24.80;10.70;;;;;;;0.92;75.60;98798.54;114429;1206;103501;-74
2021/04/16 05:22:19;;;;;;;23.07;10.63;;;;;;;0.94;75.84;98804.58;114450;1206;103092;-73
2021/04/16 05:24:46;;;;;;;21.75;9.55;;;;;;;0.96;75.71;98806.21;114456;1206;103296;-76
2021/04/16 05:27:22;;;;;;;19.13;7.65;;;;;;;0.97;75.82;98807.08;114409;1206;103059;-76
2021/04/16 05:29:53;;;;;;;22.50;9.07;;;;;;;0.97;76.07;98805.30;114473;1206;103075;-74
2021/04/16 05:32:22;;;;;;;21.35;9.00;;;;;;;0.99;75.76;98802.64;114361;1206;103081;-74
2021/04/16 05:34:52;;;;;;;19.90;8.05;;;;;;;1.01;76.00;98813.91;114476;1206;103056;-76
2021/04/16 05:37:22;;;;;;;20.00;8.50;;;;;;;1.00;75.53;98807.81;114432;1205;103158;-74
2021/04/16 05:39:51;;;;;;;18.13;6.90;;;;;;;1.00;75.77;98804.34;114468;1206;103520;-74
2021/04/16 05:42:21;;;;;;;19.20;7.95;;;;;;;0.98;75.42;98804.39;114444;1206;103053;-74
2021/04/16 05:44:51;;;;;;;19.95;9.25;;;;;;;0.97;75.91;98807.92;114450;1206;103091;-74
2021/04/16 05:47:18;;;;;;;21.90;8.70;;;;;;;0.97;75.95;98807.08;114465;1206;103211;-75
2021/04/16 05:49:45;;;;;;;20.30;8.90;;;;;;;0.97;75.56;98800.06;114485;1206;103746;-73
2021/04/16 05:52:12;;;;;;;24.50;11.20;;;;;;;0.96;75.79;98802.75;114444;1205;103210;-73
2021/04/16 05:54:39;;;;;;;20.45;8.95;;;;;;;0.99;75.67;98808.72;114458;1206;103069;-73
2021/04/16 05:57:08;;;;;;;21.50;9.00;;;;;;;0.98;75.91;98796.53;114457;1206;103181;-72
2021/04/16 05:59:35;;;;;;;21.25;8.10;;;;;;;0.96;75.92;98793.12;114427;1205;103251;-73
2021/04/16 06:02:03;;;;;;;19.30;7.90;;;;;;;0.99;75.88;98797.41;114136;1205;103220;-74
2021/04/16 06:04:30;;;;;;;21.40;8.70;;;;;;;1.01;75.66;98795.58;114116;1206;103545;-74
2021/04/16 06:07:17;;;;;;;19.50;7.70;;;;;;;1.00;75.82;98796.48;114229;1205;103538;-72
2021/04/16 06:09:44;;;;;;;23.10;10.00;;;;;;;1.01;75.80;98800.81;114401;1206;103165;-74
2021/04/16 06:12:11;;;;;;;22.00;9.15;;;;;;;1.01;75.72;98795.58;114472;1205;103095;-72
2021/04/16 06:14:44;;;;;;;21.95;9.90;;;;;;;1.00;75.82;98799.95;114384;1206;103246;-74
2021/04/16 06:17:16;;;;;;;15.50;7.10;;;;;;;1.00;75.71;98801.73;114383;1206;103136;-76
2021/04/16 06:19:49;;;;;;;20.20;9.00;;;;;;;0.96;75.82;98798.35;114447;1206;103060;-75
2021/04/16 06:22:22;;;;;;;19.45;7.85;;;;;;;0.96;75.73;98798.35;114438;1206;103088;-74
2021/04/16 06:24:50;;;;;;;18.30;7.10;;;;;;;0.95;76.04;98798.42;114186;1206;103082;-72
2021/04/16 06:27:20;;;;;;;19.30;7.30;;;;;;;0.94;75.82;98801.95;114219;1206;103206;-73
2021/04/16 06:29:48;;;;;;;21.55;8.45;;;;;;;0.93;75.66;98789.77;114243;1206;102850;-72
2021/04/16 06:32:20;;;;;;;20.75;8.30;;;;;;;0.93;75.75;98797.63;114253;1206;103091;-74
2021/04/16 06:34:55;;;;;;;17.50;7.23;;;;;;;0.93;75.66;98802.86;114426;1206;103161;-73
2021/04/16 06:37:22;;;;;;;18.75;7.70;;;;;;;0.94;75.77;98796.72;114403;1206;103184;-75
2021/04/16 06:39:49;;;;;;;20.73;8.20;;;;;;;0.95;75.80;98796.64;114379;1206;103188;-75
2021/04/16 06:42:27;;;;;;;18.50;7.40;;;;;;;0.96;75.92;98792.28;114383;1206;103538;-74
2021/04/16 06:45:00;;;;;;;17.45;7.25;;;;;;;0.95;75.84;98790.56;114394;1206;103197;-74
2021/04/16 06:47:59;;;;;;;20.50;8.40;;;;;;;0.95;75.83;98799.27;114464;1206;103097;-74
2021/04/16 06:50:35;;;;;;;20.30;8.35;;;;;;;0.96;76.11;98798.35;114426;1205;103136;-74
2021/04/16 06:53:32;;;;;;;18.90;7.60;;;;;;;0.98;76.29;98798.31;114357;1205;103092;-74
2021/04/16 06:56:05;;;;;;;20.65;8.60;;;;;;;0.93;76.05;98805.48;114408;1206;103096;-74
2021/04/16 06:59:03;;;;;;;19.30;7.05;;;;;;;0.89;76.10;98799.48;114411;1206;103081;-75
2021/04/16 07:01:43;;;;;;;17.35;7.05;;;;;;;0.88;75.82;98800.41;114384;1206;103200;-74
2021/04/16 07:04:26;;;;;;;22.35;8.90;;;;;;;0.85;76.18;98798.77;114440;1206;103124;-73
2021/04/16 07:06:57;;;;;;;17.20;7.40;;;;;;;0.82;76.25;98793.64;114303;1206;103123;-74
2021/04/16 07:09:33;;;;;;;17.75;8.00;;;;;;;0.82;75.86;98798.00;114371;1206;103105;-74
2021/04/16 07:12:16;;;;;;;20.80;7.80;;;;;;;0.83;76.20;98802.33;114434;1206;103086;-74
2021/04/16 07:14:46;;;;;;;19.90;8.20;;;;;;;0.83;76.06;98797.09;114406;1206;103153;-73
2021/04/16 07:17:18;;;;;;;21.03;7.73;;;;;;;0.83;75.90;98811.05;114416;1206;103140;-74
2021/04/16 07:19:52;;;;;;;19.80;7.70;;;;;;;0.82;76.15;98801.49;114420;1206;104156;-76
2021/04/16 07:22:36;;;;;;;18.00;6.90;;;;;;;0.78;76.11;98801.67;114361;1206;103095;-74
2021/04/16 07:25:12;;;;;;;18.75;7.53;;;;;;;0.79;76.61;98812.08;114412;1205;103165;-75
2021/04/16 07:27:53;;;;;;;16.70;6.10;;;;;;;0.80;76.22;98812.95;114415;1206;103166;-72
2021/04/16 07:30:42;;;;;;;18.47;7.53;;;;;;;0.77;76.52;98813.90;114427;1205;103098;-72
2021/04/16 07:33:42;;;;;;;17.50;6.50;;;;;;;0.76;76.47;98814.80;114430;1206;103159;-71
2021/04/16 07:36:33;;;;;;;17.90;7.07;;;;;;;0.73;76.13;98813.17;114254;1206;103098;-72
2021/04/16 07:39:12;;;;;;;21.20;7.60;;;;;;;0.72;76.07;98816.70;114430;1206;103191;-72
2021/04/16 07:41:59;;;;;;;19.70;7.60;;;;;;;0.70;76.35;98817.64;114444;1206;103156;-74
2021/04/16 07:44:36;;;;;;;16.70;6.40;;;;;;;0.68;76.27;98815.09;114444;1205;103053;-72
2021/04/16 07:47:12;;;;;;;17.20;6.40;;;;;;;0.67;76.18;98815.14;114444;1206;103163;-74
2021/04/16 07:49:59;;;;;;;16.87;7.50;;;;;;;0.66;76.31;98823.90;114451;1206;103054;-74
2021/04/16 07:52:50;;;;;;;16.80;7.00;;;;;;;0.65;76.54;98820.44;114454;1206;103079;-74
2021/04/16 07:55:32;;;;;;;18.50;6.55;;;;;;;0.68;76.24;98822.08;114430;1206;103060;-76
2021/04/16 07:58:29;;;;;;;17.33;6.90;;;;;;;0.67;76.12;98812.52;114444;1206;103086;-76
2021/04/16 08:00:56;;;;;;;18.30;6.90;;;;;;;0.66;76.21;98811.67;114495;1206;103174;-75
2021/04/16 08:03:27;;;;;;;19.05;8.20;;;;;;;0.65;76.53;98823.06;114414;1206;103121;-75
2021/04/16 08:06:02;;;;;;;19.30;7.70;;;;;;;0.66;76.53;98816.91;114508;1206;103133;-74
2021/04/16 08:08:48;;;;;;;18.10;7.65;;;;;;;0.67;76.16;98818.63;114460;1206;103053;-74
2021/04/16 08:11:21;;;;;;;19.20;8.20;;;;;;;0.70;76.59;98825.50;114481;1206;103127;-75
2021/04/16 08:13:48;;;;;;;19.40;7.40;;;;;;;0.73;76.24;98817.53;114460;1206;103136;-75
2021/04/16 08:16:20;;;;;;;22.10;9.10;;;;;;;0.78;76.52;98822.63;114441;1206;103082;-73
2021/04/16 08:19:04;;;;;;;21.10;8.50;;;;;;;0.80;76.20;98823.42;114433;1206;103172;-74
2021/04/16 08:21:40;;;;;;;20.37;8.67;;;;;;;0.82;76.67;98824.19;114427;1206;103131;-75
2021/04/16 08:24:21;;;;;;;18.40;8.30;;;;;;;0.83;76.45;98831.13;114464;1205;103152;-75
2021/04/16 08:27:12;;;;;;;20.60;8.60;;;;;;;0.84;76.68;98828.48;114460;1206;103223;-73
2021/04/16 08:29:54;;;;;;;20.45;8.55;;;;;;;0.87;76.46;98822.27;114423;1206;103131;-73
2021/04/16 08:32:40;;;;;;;18.70;8.00;;;;;;;0.88;76.42;98829.20;114468;1204;103150;-73
2021/04/16 08:35:54;;;;;;;20.87;9.50;;;;;;;0.90;76.63;98830.00;114362;1206;103132;-75
2021/04/16 08:38:27;;;;;;;22.10;10.33;;;;;;;0.94;76.30;98833.38;114443;1206;103095;-72
2021/04/16 08:41:01;;;;;;;19.40;8.10;;;;;;;0.94;76.56;98825.53;114450;1206;103099;-72
2021/04/16 08:43:38;;;;;;;21.80;9.50;;;;;;;0.95;76.52;98828.08;114390;1206;103124;-75
2021/04/16 08:46:33;;;;;;;22.25;9.50;;;;;;;0.96;76.42;98832.40;114452;1206;103158;-75
2021/04/16 08:49:31;;;;;;;21.15;8.70;;;;;;;0.96;76.63;98840.26;114444;1206;103140;-71
2021/04/16 08:52:20;;;;;;;19.90;8.25;;;;;;;0.98;76.48;98832.36;114418;1206;103230;-74
2021/04/16 08:54:52;;;;;;;20.15;8.70;;;;;;;0.99;76.78;98829.67;114397;1206;103085;-72
2021/04/16 08:57:40;;;;;;;22.97;9.53;;;;;;;0.99;76.89;98834.91;114307;1205;103192;-75
2021/04/16 09:00:25;;;;;;;22.60;9.40;;;;;;;1.00;77.04;98822.69;114379;1205;103099;-73
2021/04/16 09:02:58;;;;;;;17.45;8.05;;;;;;;1.02;76.69;98831.31;114424;1205;103580;-73
2021/04/16 09:05:49;;;;;;;21.90;10.40;;;;;;;1.02;76.46;98833.92;114448;1206;103124;-73
2021/04/16 09:08:22;;;;;;;21.37;9.47;;;;;;;1.03;76.66;98833.02;114260;1205;103229;-73
2021/04/16 09:10:59;;;;;;;22.20;9.17;;;;;;;1.05;76.63;98828.58;114381;1206;103047;-74
2021/04/16 09:13:38;;;;;;;21.45;9.10;;;;;;;1.08;76.75;98841.56;114437;1206;103050;-74
2021/04/16 09:16:49;;;;;;;21.70;10.00;;;;;;;1.10;76.60;98846.76;114473;1206;103053;-73
2021/04/16 09:19:23;;;;;;;23.20;9.60;;;;;;;1.13;76.48;98834.38;114557;1206;103153;-72
2021/04/16 09:22:02;;;;;;;19.45;7.85;;;;;;;1.15;76.75;98835.18;114433;1206;103047;-73
2021/04/16 09:24:42;;;;;;;21.50;9.50;;;;;;;1.17;76.69;98838.60;114351;1206;103203;-75
2021/04/16 09:27:33;;;;;;;19.90;8.30;;;;;;;1.19;76.86;98844.64;114246;1206;103079;-72
2021/04/16 09:30:08;;;;;;;23.00;9.90;;;;;;;1.19;76.80;98838.56;114413;1206;103081;-72
2021/04/16 09:32:47;;;;;;;18.70;7.30;;;;;;;1.22;76.92;98846.30;114364;1206;103174;-74
2021/04/16 09:35:18;;;;;;;21.50;10.55;;;;;;;1.23;76.77;98847.98;114418;1205;103165;-72
2021/04/16 09:38:12;;;;;;;19.60;8.10;;;;;;;1.25;76.78;98845.32;114404;1206;103059;-72
2021/04/16 09:40:39;;;;;;;23.07;9.60;;;;;;;1.27;76.71;98846.95;114442;1206;103088;-72
2021/04/16 09:43:09;;;;;;;20.95;9.20;;;;;;;1.29;76.77;98852.16;114441;1206;103064;-73
2021/04/16 09:45:52;;;;;;;20.75;9.40;;;;;;;1.32;76.76;98852.88;114459;1206;103615;-72
2021/04/16 09:48:19;;;;;;;23.85;10.90;;;;;;;1.38;76.85;98848.31;114412;1206;103114;-73
2021/04/16 09:50:57;;;;;;;24.30;10.93;;;;;;;1.42;77.60;98855.16;114380;1206;103155;-72
2021/04/16 09:53:38;;;;;;;23.07;11.60;;;;;;;1.46;76.97;98843.64;114404;1206;103114;-72
2021/04/16 09:56:06;;;;;;;24.80;11.10;;;;;;;1.49;77.06;98846.98;114415;1206;103172;-72
2021/04/16 09:58:42;;;;;;;23.70;10.85;;;;;;;1.53;76.83;98847.73;114407;1206;103223;-71
2021/04/16 10:01:16;;;;;;;23.40;11.80;;;;;;;1.55;76.74;98847.66;114396;1206;103550;-72
2021/04/16 10:03:51;;;;;;;24.80;11.90;;;;;;;1.58;76.97;98850.16;114395;1206;103149;-71
2021/04/16 10:06:26;;;;;;;24.70;12.00;;;;;;;1.60;77.16;98851.83;114481;1206;103165;-74
2021/04/16 10:09:11;;;;;;;24.35;11.70;;;;;;;1.64;76.84;98852.55;114383;1204;103155;-71
2021/04/16 10:11:47;;;;;;;24.83;12.90;;;;;;;1.65;76.83;98854.25;114392;1206;103162;-71
2021/04/16 10:14:24;;;;;;;23.80;11.80;;;;;;;1.67;76.70;98843.69;114429;1206;103127;-70
2021/04/16 10:17:03;;;;;;;24.50;12.35;;;;;;;1.67;77.06;98856.80;114410;1205;103095;-71
2021/04/16 10:19:38;;;;;;;25.05;12.50;;;;;;;1.70;76.94;98856.69;114431;1206;103171;-71
2021/04/16 10:22:22;;;;;;;24.15;11.35;;;;;;;1.70;76.99;98852.31;114431;1206;103053;-72
2021/04/16 12:38:40;;;;;;;24.35;12.30;;;;;;;1.97;77.09;98907.19;114304;1206;102872;-68
2021/04/16 12:41:15;;;;;;;24.90;12.15;;;;;;;1.96;77.24;98905.48;114386;1206;103366;-69
2021/04/16 12:43:44;;;;;;;24.33;11.80;;;;;;;1.96;76.86;98904.64;114301;1206;103139;-69
2021/04/16 12:46:16;;;;;;;26.20;12.50;;;;;;;1.98;77.26;98906.27;114249;1206;103054;-70
2021/04/16 12:48:45;;;;;;;27.05;12.45;;;;;;;1.99;77.24;98904.52;114263;1206;103163;-70
2021/04/16 12:51:13;;;;;;;25.25;11.85;;;;;;;1.99;77.17;98899.27;114197;1206;103085;-70
2021/04/16 12:53:40;;;;;;;24.95;11.90;;;;;;;1.99;77.31;98897.48;114391;1206;103153;-70
2021/04/16 12:56:14;;;;;;;25.90;12.05;;;;;;;2.00;77.05;98903.61;114489;1206;103156;-71
2021/04/16 12:58:42;;;;;;;;;;;;;;;2.01;77.00;98905.31;114313;1213;103194;-70
2021/04/16 13:01:20;;;;;;;24.30;12.00;;;;;;;2.03;77.21;98909.56;114164;1206;103059;-71
2021/04/16 13:03:50;;;;;;;26.70;13.30;;;;;;;2.06;77.33;98896.33;114153;1206;103092;-69
2021/04/16 13:06:47;;;;;;;25.03;12.07;;;;;;;2.06;77.05;98905.95;114241;1206;103162;-71
2021/04/16 13:09:19;;;;;;;27.37;13.07;;;;;;;2.07;77.32;98911.16;114128;1206;103089;-70
2021/04/16 13:11:50;;;;;;;25.20;12.17;;;;;;;2.11;76.96;98917.13;114233;1206;103490;-70
2021/04/16 13:14:19;;;;;;;25.00;11.05;;;;;;;2.11;77.44;98909.25;114390;1206;103185;-70
2021/04/16 13:16:48;;;;;;;25.05;12.55;;;;;;;2.11;77.38;98904.00;114108;1206;103546;-70
2021/04/16 13:19:26;;;;;;;24.20;11.70;;;;;;;2.14;76.97;98897.80;114367;1206;103077;-68
2021/04/16 13:22:03;;;;;;;23.40;11.50;;;;;;;2.14;77.19;98901.25;114317;1206;103085;-69
2021/04/16 13:24:34;;;;;;;22.63;10.63;;;;;;;2.16;77.26;98903.84;114408;1206;103191;-70
2021/04/16 13:27:07;;;;;;;22.27;11.30;;;;;;;2.16;77.38;98902.05;114255;1205;103255;-69
2021/04/16 13:29:34;;;;;;;28.65;15.20;;;;;;;2.19;77.08;98901.09;114365;1205;103204;-69
2021/04/16 13:32:07;;;;;;;24.50;12.70;;;;;;;2.21;77.19;98913.21;114348;1206;103049;-69
2021/04/16 13:34:39;;;;;;;26.63;13.00;;;;;;;2.21;77.36;98907.97;114370;1206;103606;-70
2021/04/16 13:37:12;;;;;;;24.20;11.60;;;;;;;2.22;76.91;98908.84;114297;1206;103079;-71
2021/04/16 13:39:42;;;;;;;23.00;10.75;;;;;;;2.22;77.33;98908.84;114345;1206;103079;-69
2021/04/16 13:42:11;;;;;;;25.20;12.50;;;;;;;2.22;76.78;98908.84;114370;1206;103242;-70
2021/04/16 13:44:38;;;;;;;24.13;11.70;;;;;;;2.22;77.26;98911.46;114316;1206;103082;-70
2021/04/16 13:47:09;;;;;;;24.45;12.90;;;;;;;2.22;77.31;98908.84;114336;1206;103124;-71
2021/04/16 13:49:40;;;;;;;25.70;13.10;;;;;;;2.23;77.06;98911.38;114319;1206;103541;-70
2021/04/16 13:52:08;;;;;;;25.10;13.50;;;;;;;2.25;77.43;98915.72;114319;1205;103201;-70
2021/04/16 13:54:36;;;;;;;25.70;12.50;;;;;;;2.25;77.25;98910.47;114326;1206;103170;-69
2021/04/16 13:57:06;;;;;;;27.57;13.43;;;;;;;2.26;77.24;98917.42;114265;1206;103085;-70
2021/04/16 13:59:34;;;;;;;26.53;14.00;;;;;;;2.25;77.15;98913.93;114382;1205;103507;-69